createdAt,value
2022-12-01T00:02:19.647Z,12.05
2022-12-01T00:04:48.431Z,11.65
2022-12-01T00:07:14.903Z,11.57
2022-12-01T00:10:00.141Z,12.32
2022-12-01T00:12:26.568Z,11.32
2022-12-01T00:15:00.945Z,15.45
2022-12-01T00:17:30.461Z,15.40
2022-12-01T00:19:57.397Z,12.35
2022-12-01T00:22:23.807Z,18.15
2022-12-01T00:24:50.376Z,19.13
2022-12-01T00:27:16.889Z,36.47
2022-12-01T00:29:43.444Z,27.98
2022-12-01T00:32:09.856Z,9.90
2022-12-01T00:34:37.819Z,12.10
2022-12-01T00:37:04.953Z,18.70
2022-12-01T00:39:31.577Z,13.35
2022-12-01T00:41:57.954Z,11.65
2022-12-01T00:44:24.614Z,12.98
2022-12-01T00:46:50.997Z,10.52
2022-12-01T00:49:17.510Z,14.10
2022-12-01T00:51:44.010Z,9.38
2022-12-01T00:54:10.501Z,11.70
2022-12-01T00:56:36.938Z,10.00
2022-12-01T00:59:03.403Z,9.98
2022-12-01T01:01:29.949Z,11.10
2022-12-01T01:03:58.073Z,11.30
2022-12-01T01:06:24.525Z,9.60
2022-12-01T01:08:51.091Z,10.85
2022-12-01T01:11:17.804Z,13.30
2022-12-01T01:13:44.332Z,14.98
2022-12-01T01:16:16.757Z,12.77
2022-12-01T01:18:43.493Z,12.65
2022-12-01T01:21:14.110Z,13.95
2022-12-01T01:23:40.922Z,11.35
2022-12-01T01:26:13.272Z,10.50
2022-12-01T01:28:41.601Z,9.82
2022-12-01T01:31:10.091Z,11.68
2022-12-01T01:33:36.853Z,10.23
2022-12-01T01:36:04.560Z,12.73
2022-12-01T01:38:31.963Z,9.57
2022-12-01T01:40:58.444Z,11.68
2022-12-01T01:43:40.073Z,10.40
2022-12-01T01:46:08.483Z,11.43
2022-12-01T01:48:37.514Z,9.98
2022-12-01T01:51:05.879Z,11.05
2022-12-01T01:53:32.428Z,11.60
2022-12-01T01:55:59.951Z,8.73
2022-12-01T01:58:27.481Z,10.65
2022-12-01T02:00:54.094Z,9.18
2022-12-01T02:03:22.013Z,13.45
2022-12-01T02:05:49.067Z,11.90
2022-12-01T02:08:15.643Z,12.68
2022-12-01T02:11:00.666Z,17.02
2022-12-01T02:13:29.994Z,13.40
2022-12-01T02:16:09.448Z,10.93
2022-12-01T02:18:38.884Z,12.20
2022-12-01T02:21:20.593Z,13.98
2022-12-01T02:24:37.882Z,9.95
2022-12-01T02:27:25.366Z,9.20
2022-12-01T02:30:29.237Z,11.70
2022-12-01T02:33:06.505Z,12.85
2022-12-01T02:35:57.496Z,16.30
2022-12-01T02:38:40.472Z,9.73
2022-12-01T02:41:20.208Z,12.43
2022-12-01T02:43:56.763Z,12.98
2022-12-01T02:46:46.657Z,13.18
2022-12-01T02:49:19.719Z,10.88
2022-12-01T02:51:48.689Z,12.02
2022-12-01T02:54:15.672Z,13.73
2022-12-01T02:56:45.040Z,13.70
2022-12-01T02:59:13.321Z,13.00
2022-12-01T03:01:55.677Z,13.30
2022-12-01T03:04:35.548Z,13.88
2022-12-01T03:07:54.095Z,13.20
2022-12-01T03:10:37.004Z,13.15
2022-12-01T03:13:22.235Z,11.68
2022-12-01T03:16:01.285Z,16.58
2022-12-01T03:18:36.887Z,10.55
2022-12-01T03:21:09.504Z,14.00
2022-12-01T03:23:42.307Z,12.25
2022-12-01T03:26:16.271Z,13.38
2022-12-01T03:28:49.611Z,11.48
2022-12-01T03:31:23.012Z,12.00
2022-12-01T03:33:59.200Z,13.00
2022-12-01T03:36:33.410Z,10.30
2022-12-01T03:39:05.344Z,12.95
2022-12-01T03:41:38.341Z,13.82
2022-12-01T03:44:09.715Z,12.00
2022-12-01T03:46:53.911Z,11.95
2022-12-01T03:49:23.640Z,14.52
2022-12-01T03:52:13.338Z,14.25
2022-12-01T03:54:47.159Z,16.08
2022-12-01T03:57:20.797Z,13.10
2022-12-01T03:59:47.939Z,16.90
2022-12-01T04:02:14.802Z,15.27
2022-12-01T04:04:41.329Z,11.60
2022-12-01T04:07:13.286Z,14.43
2022-12-01T04:09:41.656Z,17.10
2022-12-01T04:12:30.492Z,13.90
2022-12-01T04:14:57.975Z,13.57
2022-12-01T04:17:25.255Z,14.98
2022-12-01T04:19:51.936Z,16.17
2022-12-01T04:22:18.934Z,14.88
2022-12-01T04:24:45.394Z,16.77
2022-12-01T04:27:11.914Z,18.92
2022-12-01T04:29:38.318Z,14.68
2022-12-01T04:32:05.329Z,13.75
2022-12-01T04:34:31.711Z,14.65
2022-12-01T04:36:58.628Z,13.20
2022-12-01T04:39:24.998Z,17.48
2022-12-01T04:41:51.625Z,16.65
2022-12-01T04:44:18.189Z,23.90
2022-12-01T04:46:44.863Z,13.43
2022-12-01T04:49:11.416Z,14.23
2022-12-01T04:51:38.033Z,14.13
2022-12-01T04:54:05.781Z,16.30
2022-12-01T04:56:33.482Z,15.65
2022-12-01T04:59:00.877Z,15.88
2022-12-01T05:01:27.469Z,18.23
2022-12-01T05:03:54.187Z,21.67
2022-12-01T05:06:23.235Z,16.92
2022-12-01T05:08:51.086Z,14.77
2022-12-01T05:11:18.497Z,16.42
2022-12-01T05:13:47.419Z,14.15
2022-12-01T05:16:20.241Z,15.07
2022-12-01T05:19:13.032Z,19.73
2022-12-01T05:21:41.795Z,17.17
2022-12-01T05:24:09.138Z,15.95
2022-12-01T05:26:36.831Z,17.63
2022-12-01T05:29:03.505Z,15.13
2022-12-01T05:31:30.476Z,15.13
2022-12-01T05:33:56.970Z,19.88
2022-12-01T05:36:23.649Z,21.75
2022-12-01T05:38:50.128Z,15.98
2022-12-01T05:41:17.549Z,19.63
2022-12-01T05:43:44.258Z,19.25
2022-12-01T05:46:10.916Z,15.18
2022-12-01T05:48:37.531Z,17.85
2022-12-01T05:51:12.043Z,18.65
2022-12-01T05:53:38.800Z,20.63
2022-12-01T05:56:06.885Z,15.73
2022-12-01T05:58:34.842Z,19.58
2022-12-01T06:01:02.211Z,21.98
2022-12-01T06:03:28.702Z,19.08
2022-12-01T06:05:55.322Z,22.33
2022-12-01T06:08:21.757Z,23.58
2022-12-01T06:10:48.209Z,19.23
2022-12-01T06:13:14.894Z,23.75
2022-12-01T06:15:41.429Z,24.67
2022-12-01T06:18:07.914Z,18.08
2022-12-01T06:20:34.362Z,18.17
2022-12-01T06:23:00.897Z,19.13
2022-12-01T06:25:27.494Z,16.80
2022-12-01T06:27:58.338Z,22.90
2022-12-01T06:30:25.494Z,19.75
2022-12-01T06:32:52.027Z,19.80
2022-12-01T06:35:18.606Z,19.80
2022-12-01T06:37:45.128Z,18.70
2022-12-01T06:40:12.083Z,22.35
2022-12-01T06:42:38.633Z,22.92
2022-12-01T06:45:05.473Z,18.42
2022-12-01T06:47:31.929Z,19.75
2022-12-01T06:49:58.327Z,22.25
2022-12-01T06:52:24.753Z,20.33
2022-12-01T06:54:51.299Z,20.15
2022-12-01T06:57:18.015Z,23.15
2022-12-01T06:59:44.829Z,20.48
2022-12-01T07:02:11.816Z,22.73
2022-12-01T07:04:38.357Z,19.13
2022-12-01T07:07:06.006Z,19.02
2022-12-01T07:09:32.535Z,20.05
2022-12-01T07:11:59.012Z,19.65
2022-12-01T07:14:26.718Z,26.70
2022-12-01T07:16:54.113Z,19.85
2022-12-01T07:19:20.761Z,25.30
2022-12-01T07:21:47.331Z,21.13
2022-12-01T07:24:14.567Z,22.80
2022-12-01T07:26:42.158Z,20.17
2022-12-01T07:29:11.475Z,21.23
2022-12-01T07:31:39.096Z,20.90
2022-12-01T07:34:06.156Z,20.15
2022-12-01T07:36:32.948Z,19.88
2022-12-01T07:38:59.361Z,22.98
2022-12-01T07:41:25.925Z,23.30
2022-12-01T07:43:52.451Z,19.27
2022-12-01T07:46:23.591Z,21.48
2022-12-01T07:48:51.483Z,25.50
2022-12-01T07:51:18.749Z,19.00
2022-12-01T07:53:46.394Z,22.98
2022-12-01T07:56:13.344Z,20.80
2022-12-01T07:58:40.334Z,18.08
2022-12-01T08:01:12.220Z,19.60
2022-12-01T08:03:39.524Z,26.30
2022-12-01T08:06:06.894Z,20.52
2022-12-01T08:08:36.744Z,24.10
2022-12-01T08:11:06.561Z,19.60
2022-12-01T08:13:33.521Z,25.05
2022-12-01T08:16:04.096Z,26.70
2022-12-01T08:18:30.712Z,26.05
2022-12-01T08:21:00.174Z,28.58
2022-12-01T08:23:26.586Z,20.88
2022-12-01T08:25:53.142Z,28.77
2022-12-01T08:28:20.638Z,26.13
2022-12-01T08:30:47.673Z,29.55
2022-12-01T08:33:14.197Z,25.70
2022-12-01T08:35:40.787Z,26.80
2022-12-01T08:38:07.209Z,23.15
2022-12-01T08:40:33.714Z,28.40
2022-12-01T08:43:00.150Z,34.75
2022-12-01T08:45:26.729Z,27.13
2022-12-01T08:47:54.744Z,25.60
2022-12-01T08:50:21.252Z,22.55
2022-12-01T08:52:47.764Z,28.55
2022-12-01T08:55:14.224Z,27.88
2022-12-01T08:57:42.392Z,28.63
2022-12-01T09:00:09.546Z,31.05
2022-12-01T09:02:36.103Z,29.77
2022-12-01T09:05:03.241Z,28.40
2022-12-01T09:07:29.724Z,26.38
2022-12-01T09:09:56.231Z,24.33
2022-12-01T09:12:22.659Z,25.92
2022-12-01T09:14:49.692Z,24.63
2022-12-01T09:17:17.527Z,22.33
2022-12-01T09:19:44.517Z,27.95
2022-12-01T09:22:11.865Z,23.00
2022-12-01T09:24:38.903Z,24.95
2022-12-01T09:27:05.628Z,22.48
2022-12-01T09:29:32.454Z,23.67
2022-12-01T09:32:00.349Z,27.63
2022-12-01T09:34:28.043Z,23.20
2022-12-01T09:36:56.714Z,21.88
2022-12-01T09:39:23.649Z,22.92
2022-12-01T09:42:07.449Z,23.42
2022-12-01T09:44:53.166Z,21.23
2022-12-01T09:47:28.100Z,21.17
2022-12-01T09:50:14.658Z,18.70
2022-12-01T09:52:47.272Z,23.25
2022-12-01T09:55:16.805Z,22.95
2022-12-01T09:57:46.709Z,19.27
2022-12-01T10:00:13.744Z,20.77
2022-12-01T10:02:50.521Z,19.70
2022-12-01T10:05:21.047Z,18.58
2022-12-01T10:08:02.252Z,19.63
2022-12-01T10:10:36.819Z,21.75
2022-12-01T10:13:06.469Z,20.17
2022-12-01T10:15:47.756Z,17.75
2022-12-01T10:18:37.943Z,19.63
2022-12-01T10:21:35.990Z,20.20
2022-12-01T10:24:12.482Z,20.30
2022-12-01T10:26:54.446Z,23.30
2022-12-01T10:29:28.356Z,17.33
2022-12-01T10:32:00.839Z,16.70
2022-12-01T10:34:30.196Z,18.58
2022-12-01T10:36:57.983Z,19.17
2022-12-01T10:39:39.614Z,16.10
2022-12-01T10:42:17.066Z,15.73
2022-12-01T10:44:44.488Z,16.35
2022-12-01T10:47:20.927Z,19.45
2022-12-01T10:49:48.543Z,15.38
2022-12-01T10:52:38.721Z,14.75
2022-12-01T10:55:26.419Z,14.98
2022-12-01T10:57:55.024Z,18.33
2022-12-01T11:00:58.041Z,13.35
2022-12-01T11:03:36.675Z,22.83
2022-12-01T11:06:06.601Z,14.98
2022-12-01T11:08:44.421Z,14.30
2022-12-01T11:11:36.578Z,16.45
2022-12-01T11:14:16.378Z,17.27
2022-12-01T11:16:45.668Z,13.80
2022-12-01T11:19:32.612Z,16.38
2022-12-01T11:22:01.871Z,14.93
2022-12-01T11:24:43.595Z,20.33
2022-12-01T11:27:18.695Z,14.95
2022-12-01T11:29:49.025Z,16.80
2022-12-01T11:32:35.128Z,20.50
2022-12-01T11:35:11.056Z,16.75
2022-12-01T11:37:50.490Z,20.92
2022-12-01T11:40:33.554Z,14.20
2022-12-01T11:43:05.105Z,16.13
2022-12-01T11:45:40.958Z,16.88
2022-12-01T11:48:44.768Z,19.08
2022-12-01T11:53:46.826Z,14.50
2022-12-01T11:56:23.767Z,19.67
2022-12-01T11:58:56.754Z,18.08
2022-12-01T12:01:35.169Z,18.25
2022-12-01T12:04:16.195Z,15.32
2022-12-01T12:06:57.041Z,20.30
2022-12-01T12:09:39.014Z,15.57
2022-12-01T12:12:31.004Z,19.02
2022-12-01T12:15:19.197Z,22.75
2022-12-01T12:18:09.249Z,26.05
2022-12-01T12:20:45.448Z,22.88
2022-12-01T12:23:37.863Z,22.17
2022-12-01T12:26:32.786Z,22.67
2022-12-01T12:29:20.888Z,20.88
2022-12-01T12:32:15.490Z,22.60
2022-12-01T12:34:49.351Z,22.02
2022-12-01T12:37:34.995Z,20.77
2022-12-01T12:40:20.182Z,21.23
2022-12-01T12:43:20.097Z,25.00
2022-12-01T12:46:08.589Z,20.02
2022-12-01T12:49:03.567Z,21.10
2022-12-01T12:51:36.229Z,22.30
2022-12-01T12:54:11.795Z,25.58
2022-12-01T12:56:43.287Z,25.15
2022-12-01T12:59:18.219Z,26.35
2022-12-01T13:01:55.527Z,28.95
2022-12-01T13:04:27.855Z,31.27
2022-12-01T13:07:10.431Z,33.42
2022-12-01T13:09:44.396Z,28.95
2022-12-01T13:12:28.473Z,27.50
2022-12-01T13:15:02.013Z,36.63
2022-12-01T13:17:36.809Z,32.95
2022-12-01T13:20:04.802Z,32.88
2022-12-01T13:22:35.769Z,37.05
2022-12-01T13:25:03.751Z,37.60
2022-12-01T13:27:35.122Z,38.25
2022-12-01T13:30:01.962Z,30.80
2022-12-01T13:32:34.496Z,38.20
2022-12-01T13:35:03.309Z,42.03
2022-12-01T13:37:35.576Z,36.13
2022-12-01T13:40:24.271Z,40.25
2022-12-01T13:43:05.543Z,39.28
2022-12-01T13:45:40.564Z,38.53
2022-12-01T13:48:37.005Z,37.78
2022-12-01T13:51:04.784Z,42.63
2022-12-01T13:53:35.882Z,41.88
2022-12-01T13:56:17.758Z,45.80
2022-12-01T13:58:50.396Z,45.08
2022-12-01T14:01:19.868Z,42.13
2022-12-01T14:04:11.109Z,40.45
2022-12-01T14:06:49.488Z,51.83
2022-12-01T14:09:35.355Z,44.72
2022-12-01T14:12:05.673Z,45.17
2022-12-01T14:14:38.219Z,47.38
2022-12-01T14:17:05.186Z,38.70
2022-12-01T14:19:34.217Z,50.15
2022-12-01T14:22:02.186Z,49.47
2022-12-01T14:24:37.360Z,46.35
2022-12-01T14:29:38.610Z,48.67
2022-12-01T14:32:25.616Z,47.58
2022-12-01T14:34:55.671Z,45.22
2022-12-01T14:37:27.306Z,44.00
2022-12-01T14:40:03.576Z,49.28
2022-12-01T14:42:57.767Z,43.25
2022-12-01T14:45:33.657Z,40.47
2022-12-01T14:48:15.239Z,43.92
2022-12-01T14:50:55.181Z,44.78
2022-12-01T14:53:33.929Z,45.90
2022-12-01T14:56:14.624Z,44.60
2022-12-01T14:58:51.865Z,42.58
2022-12-01T15:01:19.088Z,40.55
2022-12-01T15:03:50.445Z,40.08
2022-12-01T15:06:22.692Z,46.17
2022-12-01T15:12:03.820Z,39.05
2022-12-01T15:14:32.432Z,42.85
2022-12-01T15:16:59.635Z,40.20
2022-12-01T15:19:34.285Z,44.15
2022-12-01T15:22:15.498Z,42.35
2022-12-01T15:24:43.162Z,38.65
2022-12-01T15:27:28.048Z,39.50
2022-12-01T15:29:56.065Z,40.60
2022-12-01T15:32:24.832Z,38.05
2022-12-01T15:34:54.585Z,43.03
2022-12-01T15:37:24.896Z,35.90
2022-12-01T15:40:00.862Z,39.20
2022-12-01T15:42:39.474Z,46.28
2022-12-01T15:45:19.035Z,38.80
2022-12-01T15:47:50.279Z,38.20
2022-12-01T15:50:42.730Z,40.88
2022-12-01T15:53:33.353Z,37.33
2022-12-01T15:56:03.042Z,45.25
2022-12-01T15:58:34.684Z,50.80
2022-12-01T16:01:05.526Z,38.58
2022-12-01T16:03:45.980Z,49.92
2022-12-01T16:06:12.861Z,49.88
2022-12-01T16:08:39.596Z,45.63
2022-12-01T16:11:24.428Z,40.78
2022-12-01T16:14:21.355Z,45.35
2022-12-01T16:16:49.325Z,46.67
2022-12-01T16:19:18.955Z,47.08
2022-12-01T16:21:53.870Z,49.28
2022-12-01T16:24:30.668Z,43.30
2022-12-01T16:27:07.383Z,48.60
2022-12-01T16:29:48.329Z,50.17
2022-12-01T16:32:22.899Z,51.35
2022-12-01T16:34:51.582Z,39.72
2022-12-01T16:37:18.659Z,44.63
2022-12-01T16:39:45.247Z,48.10
2022-12-01T16:42:16.548Z,64.85
2022-12-01T16:44:44.811Z,50.90
2022-12-01T16:47:22.782Z,47.80
2022-12-01T16:49:49.680Z,51.13
2022-12-01T16:52:43.204Z,45.28
2022-12-01T16:55:03.226Z,49.30
2022-12-01T16:57:29.687Z,48.28
2022-12-01T16:59:56.068Z,47.63
2022-12-01T17:02:22.802Z,46.28
2022-12-01T17:04:49.564Z,44.40
2022-12-01T17:07:16.249Z,50.25
2022-12-01T17:09:42.615Z,47.70
2022-12-01T17:12:09.684Z,53.83
2022-12-01T17:14:36.078Z,45.05
2022-12-01T17:17:02.423Z,46.95
2022-12-01T17:19:28.872Z,45.72
2022-12-01T17:21:56.825Z,53.90
2022-12-01T17:24:23.675Z,46.00
2022-12-01T17:26:50.047Z,44.13
2022-12-01T17:29:16.465Z,51.67
2022-12-01T17:31:42.879Z,43.90
2022-12-01T17:34:09.302Z,52.20
2022-12-01T17:36:35.684Z,48.95
2022-12-01T17:39:02.111Z,47.72
2022-12-01T17:41:35.472Z,49.90
2022-12-01T17:44:03.455Z,51.95
2022-12-01T17:46:30.859Z,55.35
2022-12-01T17:48:57.624Z,51.42
2022-12-01T17:51:24.065Z,55.10
2022-12-01T17:53:50.514Z,51.78
2022-12-01T17:56:17.372Z,47.40
2022-12-01T17:58:44.132Z,51.60
2022-12-01T18:01:16.371Z,46.03
2022-12-01T18:03:43.265Z,48.78
2022-12-01T18:06:10.202Z,45.53
2022-12-01T18:08:37.132Z,48.70
2022-12-01T18:11:09.808Z,42.03
2022-12-01T18:13:38.409Z,42.25
2022-12-01T18:16:10.417Z,54.22
2022-12-01T18:18:38.154Z,48.35
2022-12-01T18:21:06.840Z,42.15
2022-12-01T18:23:33.354Z,46.03
2022-12-01T18:26:08.661Z,51.58
2022-12-01T18:28:38.846Z,50.90
2022-12-01T18:31:11.319Z,48.33
2022-12-01T18:33:40.851Z,57.63
2022-12-01T18:36:23.184Z,44.15
2022-12-01T18:38:51.622Z,43.15
2022-12-01T18:41:18.832Z,45.90
2022-12-01T18:43:45.382Z,46.53
2022-12-01T18:46:13.911Z,50.00
2022-12-01T18:48:46.059Z,50.05
2022-12-01T18:51:13.349Z,51.50
2022-12-01T18:53:40.204Z,44.10
2022-12-01T18:56:11.870Z,47.80
2022-12-01T18:58:39.597Z,53.28
2022-12-01T19:01:26.864Z,51.53
2022-12-01T19:03:57.414Z,43.55
2022-12-01T19:06:26.334Z,38.03
2022-12-01T19:08:53.500Z,40.47
2022-12-01T19:11:20.196Z,43.95
2022-12-01T19:13:47.409Z,41.63
2022-12-01T19:16:15.860Z,44.10
2022-12-01T19:18:42.802Z,42.80
2022-12-01T19:21:11.526Z,36.80
2022-12-01T19:23:38.479Z,40.20
2022-12-01T19:26:07.013Z,35.72
2022-12-01T19:28:34.893Z,37.53
2022-12-01T19:31:09.418Z,33.83
2022-12-01T19:33:36.256Z,38.05
2022-12-01T19:36:08.257Z,38.08
2022-12-01T19:38:35.093Z,51.47
2022-12-01T19:41:01.960Z,49.50
2022-12-01T19:43:28.417Z,42.05
2022-12-01T19:45:55.011Z,63.40
2022-12-01T19:48:21.457Z,37.65
2022-12-01T19:50:47.988Z,66.82
2022-12-01T19:53:14.558Z,39.88
2022-12-01T19:55:40.923Z,41.92
2022-12-01T19:58:07.406Z,36.25
2022-12-01T20:00:33.886Z,41.90
2022-12-01T20:03:00.900Z,35.22
2022-12-01T20:05:27.500Z,35.97
2022-12-01T20:07:54.075Z,34.50
2022-12-01T20:10:20.607Z,39.20
2022-12-01T20:12:47.642Z,38.13
2022-12-01T20:15:15.258Z,39.15
2022-12-01T20:17:41.950Z,36.63
2022-12-01T20:20:10.008Z,45.20
2022-12-01T20:22:37.048Z,31.77
2022-12-01T20:25:05.377Z,32.05
2022-12-01T20:27:32.093Z,46.50
2022-12-01T20:29:59.139Z,35.15
2022-12-01T20:32:25.700Z,32.97
2022-12-01T20:34:52.473Z,40.50
2022-12-01T20:37:19.218Z,43.85
2022-12-01T20:39:45.669Z,38.92
2022-12-01T20:42:12.284Z,40.53
2022-12-01T20:44:39.990Z,38.63
2022-12-01T20:47:06.826Z,35.78
2022-12-01T20:49:33.480Z,36.22
2022-12-01T20:52:00.003Z,36.58
2022-12-01T20:54:28.443Z,32.50
2022-12-01T20:56:56.278Z,40.15
2022-12-01T20:59:23.016Z,37.05
2022-12-01T21:01:49.440Z,34.55
2022-12-01T21:04:17.203Z,34.58
2022-12-01T21:06:43.777Z,36.05
2022-12-01T21:09:12.978Z,35.63
2022-12-01T21:12:09.033Z,34.17
2022-12-01T21:14:37.597Z,32.25
2022-12-01T21:17:16.879Z,41.88
2022-12-01T21:19:52.246Z,31.40
2022-12-01T21:22:20.090Z,37.25
2022-12-01T21:24:50.934Z,28.85
2022-12-01T21:27:17.933Z,36.47
2022-12-01T21:29:47.293Z,34.65
2022-12-01T21:32:27.169Z,30.08
2022-12-01T21:34:59.945Z,33.85
2022-12-01T21:37:27.949Z,32.90
2022-12-01T21:39:56.649Z,33.55
2022-12-01T21:42:27.448Z,29.33
2022-12-01T21:44:55.574Z,37.95
2022-12-01T21:47:24.358Z,30.25
2022-12-01T21:49:57.206Z,26.38
2022-12-01T21:52:33.165Z,25.05
2022-12-01T21:55:22.605Z,28.75
2022-12-01T21:57:51.217Z,26.45
2022-12-01T22:00:29.617Z,27.52
2022-12-01T22:03:07.924Z,28.13
2022-12-01T22:06:13.699Z,29.65
2022-12-01T22:08:38.262Z,30.85
2022-12-01T22:11:25.982Z,25.45
2022-12-01T22:14:10.542Z,25.52
2022-12-01T22:16:41.361Z,26.03
2022-12-01T22:19:16.677Z,26.35
2022-12-01T22:21:50.411Z,26.63
2022-12-01T22:24:27.282Z,27.88
2022-12-01T22:27:03.749Z,24.30
2022-12-01T22:29:33.987Z,25.75
2022-12-01T22:32:33.074Z,26.02
2022-12-01T22:35:24.482Z,23.73
2022-12-01T22:38:02.808Z,32.67
2022-12-01T22:40:36.663Z,26.75
2022-12-01T22:43:15.176Z,31.75
2022-12-01T22:46:03.383Z,28.15
2022-12-01T22:48:33.740Z,30.30
2022-12-01T22:51:20.855Z,24.48
2022-12-01T22:53:48.127Z,28.08
2022-12-01T22:56:36.572Z,28.50
2022-12-01T22:59:16.415Z,25.88
2022-12-01T23:01:49.082Z,25.50
2022-12-01T23:04:53.921Z,32.42
2022-12-01T23:07:30.925Z,29.05
2022-12-01T23:10:09.129Z,33.08
2022-12-01T23:12:36.853Z,33.95
2022-12-01T23:15:33.298Z,35.28
2022-12-01T23:18:11.702Z,37.00
2022-12-01T23:20:38.243Z,31.50
2022-12-01T23:23:12.602Z,29.52
2022-12-01T23:25:39.777Z,33.50
2022-12-01T23:28:08.391Z,35.30
2022-12-01T23:30:36.741Z,33.95
2022-12-01T23:33:06.559Z,33.00
2022-12-01T23:35:45.424Z,32.30
2022-12-01T23:38:18.706Z,32.50
2022-12-01T23:40:45.746Z,31.70
2022-12-01T23:43:19.670Z,33.58
2022-12-01T23:45:46.704Z,35.88
2022-12-01T23:48:25.290Z,29.05
2022-12-01T23:50:53.723Z,27.92
2022-12-01T23:53:32.676Z,26.92
2022-12-01T23:56:09.877Z,36.35
2022-12-01T23:58:36.504Z,32.72
